Time;durP1;ratioP1;P1;durP2;ratioP2;P2;SDS_P1;SDS_P2;PMS_P1;PMS_P2;Temp;Humidity;BMP_temperature;BMP_pressure;BME280_temperature;BME280_humidity;BME280_pressure;Samples;Min_cycle;Max_cycle;Signal;HPM_P1;HPM_P2
2022/05/15 00:02:19;;;;;;;27.55;5.93;;;;;;;;;;5033059;28;20052;-58
2022/05/15 00:04:45;;;;;;;17.45;5.20;;;;;;;;;;5024150;28;20504;-58
2022/05/15 00:07:10;;;;;;;28.42;5.80;;;;;;;;;;5031014;28;20028;-58
2022/05/15 00:09:36;;;;;;;22.00;5.97;;;;;;;;;;5021980;28;20472;-58
2022/05/15 00:12:04;;;;;;;20.73;5.50;;;;;;;;;;5032424;28;20029;-58
2022/05/15 00:14:31;;;;;;;24.05;5.57;;;;;;;;;;5023632;28;20033;-58
2022/05/15 00:16:56;;;;;;;26.65;6.13;;;;;;;;;;5030561;28;20022;-58
2022/05/15 00:19:22;;;;;;;31.15;6.88;;;;;;;;;;5031319;28;20091;-58
2022/05/15 00:21:48;;;;;;;19.42;5.35;;;;;;;;;;5030707;28;20081;-58
2022/05/15 00:24:14;;;;;;;23.25;6.50;;;;;;;;;;5026954;28;20036;-58
2022/05/15 00:26:39;;;;;;;23.95;6.53;;;;;;;;;;5036862;28;20029;-58
2022/05/15 00:29:05;;;;;;;24.25;6.13;;;;;;;;;;5026899;28;20048;-58
2022/05/15 00:31:30;;;;;;;24.17;6.13;;;;;;;;;;5028171;28;20037;-58
2022/05/15 00:33:56;;;;;;;23.20;6.43;;;;;;;;;;5036115;28;20033;-58
2022/05/15 00:36:22;;;;;;;22.48;6.25;;;;;;;;;;5029574;28;20033;-58
2022/05/15 00:38:47;;;;;;;29.80;7.20;;;;;;;;;;5031516;28;20021;-58
2022/05/15 00:41:13;;;;;;;28.38;7.40;;;;;;;;;;5026691;28;20022;-58
2022/05/15 00:43:46;;;;;;;26.35;7.18;;;;;;;;;;5030501;28;20498;-57
2022/05/15 00:46:18;;;;;;;23.17;6.70;;;;;;;;;;5029283;28;20492;-58
2022/05/15 00:48:44;;;;;;;;;;;;;;;;;;5026408;28;20045;-58
2022/05/15 00:51:18;;;;;;;31.67;6.55;;;;;;;;;;5029815;28;20617;-58
2022/05/15 00:53:47;;;;;;;23.98;6.25;;;;;;;;;;5034948;28;20328;-58
2022/05/15 00:56:13;;;;;;;28.35;6.25;;;;;;;;;;5032513;28;20040;-58
2022/05/15 00:58:46;;;;;;;29.98;6.10;;;;;;;;;;5027474;28;20037;-58
2022/05/15 01:01:12;;;;;;;30.20;7.13;;;;;;;;;;5025913;28;20102;-58
2022/05/15 01:03:37;;;;;;;22.42;5.88;;;;;;;;;;5028410;28;20588;-59
2022/05/15 01:06:03;;;;;;;24.92;6.25;;;;;;;;;;5031420;28;20425;-58
2022/05/15 01:08:30;;;;;;;21.63;5.88;;;;;;;;;;5031300;28;20032;-58
2022/05/15 01:10:58;;;;;;;27.30;6.88;;;;;;;;;;5026411;28;20033;-58
2022/05/15 01:13:27;;;;;;;20.75;5.80;;;;;;;;;;5029132;28;20489;-58
2022/05/15 01:15:52;;;;;;;29.00;6.32;;;;;;;;;;5029374;28;20029;-58
2022/05/15 01:18:32;;;;;;;25.45;6.18;;;;;;;;;;5023895;28;20053;-59
2022/05/15 01:20:59;;;;;;;32.63;6.40;;;;;;;;;;5029816;28;20028;-58
2022/05/15 01:23:25;;;;;;;30.40;6.22;;;;;;;;;;5032695;28;20025;-58
2022/05/15 01:25:51;;;;;;;25.05;6.40;;;;;;;;;;5029111;28;20075;-58
2022/05/15 01:28:22;;;;;;;23.23;6.45;;;;;;;;;;5021821;28;20024;-58
2022/05/15 01:30:50;;;;;;;29.70;6.25;;;;;;;;;;5030042;28;20104;-58
2022/05/15 01:33:16;;;;;;;18.13;5.93;;;;;;;;;;5029892;28;20037;-58
2022/05/15 01:35:41;;;;;;;24.33;7.00;;;;;;;;;;5029734;28;20033;-57
2022/05/15 01:38:07;;;;;;;29.30;7.15;;;;;;;;;;5028269;28;20084;-58
2022/05/15 01:40:33;;;;;;;34.33;7.18;;;;;;;;;;5028061;28;20033;-58
2022/05/15 01:43:00;;;;;;;22.10;6.47;;;;;;;;;;5029564;28;20025;-58
2022/05/15 01:45:26;;;;;;;29.15;6.80;;;;;;;;;;5026098;28;20471;-58
2022/05/15 01:47:51;;;;;;;31.92;7.22;;;;;;;;;;5024173;28;20067;-57
2022/05/15 01:50:17;;;;;;;27.40;7.13;;;;;;;;;;5027264;28;20366;-58
2022/05/15 01:52:44;;;;;;;30.98;6.50;;;;;;;;;;5023504;28;20025;-59
2022/05/15 01:55:11;;;;;;;35.25;7.55;;;;;;;;;;5029536;28;20059;-58
2022/05/15 01:57:37;;;;;;;31.02;7.45;;;;;;;;;;5023974;28;20113;-58
2022/05/15 02:00:08;;;;;;;23.75;6.53;;;;;;;;;;5026288;28;20021;-58
2022/05/15 02:02:33;;;;;;;31.23;7.18;;;;;;;;;;5029612;28;20500;-58
2022/05/15 02:04:58;;;;;;;23.10;7.38;;;;;;;;;;5029167;28;20033;-58
2022/05/15 02:07:24;;;;;;;30.45;7.55;;;;;;;;;;5030394;28;20551;-58
2022/05/15 02:09:50;;;;;;;38.70;8.90;;;;;;;;;;5029126;28;20152;-58
2022/05/15 02:12:15;;;;;;;30.48;7.45;;;;;;;;;;5024782;28;20117;-58
2022/05/15 02:14:41;;;;;;;32.72;7.97;;;;;;;;;;5027146;28;20090;-56
2022/05/15 02:17:06;;;;;;;30.52;7.70;;;;;;;;;;5026981;28;20107;-58
2022/05/15 02:19:32;;;;;;;28.65;7.53;;;;;;;;;;5023246;28;20034;-58
2022/05/15 02:21:58;;;;;;;30.20;8.32;;;;;;;;;;5040800;28;20036;-58
2022/05/15 02:24:23;;;;;;;38.13;9.10;;;;;;;;;;5027137;28;20044;-58
2022/05/15 02:26:49;;;;;;;42.75;8.20;;;;;;;;;;5031764;28;20060;-58
2022/05/15 02:29:15;;;;;;;27.58;7.70;;;;;;;;;;5029427;28;20037;-58
2022/05/15 02:31:40;;;;;;;27.17;7.82;;;;;;;;;;5030941;28;20029;-58
2022/05/15 02:34:06;;;;;;;33.97;8.43;;;;;;;;;;5026663;28;20139;-58
2022/05/15 02:36:32;;;;;;;37.17;8.27;;;;;;;;;;5032306;28;20041;-58
2022/05/15 02:38:58;;;;;;;37.78;8.43;;;;;;;;;;5025719;28;20052;-58
2022/05/15 02:41:23;;;;;;;36.58;8.30;;;;;;;;;;5033753;28;20037;-58
2022/05/15 02:43:50;;;;;;;31.25;7.88;;;;;;;;;;5027649;28;20141;-58
2022/05/15 02:46:15;;;;;;;34.78;7.55;;;;;;;;;;5027979;28;20038;-58
2022/05/15 02:51:25;;;;;;;38.03;8.32;;;;;;;;;;5028773;28;20098;-58
2022/05/15 02:53:50;;;;;;;34.00;7.82;;;;;;;;;;5027366;28;20044;-59
2022/05/15 02:56:30;;;;;;;44.85;8.98;;;;;;;;;;5010141;28;20051;-58
2022/05/15 02:58:56;;;;;;;41.17;8.75;;;;;;;;;;5026782;28;20051;-58
2022/05/15 03:01:21;;;;;;;40.83;9.65;;;;;;;;;;5029763;28;20508;-58
2022/05/15 03:03:47;;;;;;;41.67;8.80;;;;;;;;;;5026118;28;20061;-58
2022/05/15 03:06:14;;;;;;;40.50;9.23;;;;;;;;;;5027265;28;20037;-57
2022/05/15 03:08:44;;;;;;;40.22;8.95;;;;;;;;;;5032196;28;20033;-58
2022/05/15 03:11:10;;;;;;;33.35;8.80;;;;;;;;;;5035238;28;20388;-58
2022/05/15 03:13:36;;;;;;;39.67;9.00;;;;;;;;;;5020945;28;20040;-58
2022/05/15 03:16:02;;;;;;;30.13;8.13;;;;;;;;;;5030618;28;21092;-57
2022/05/15 03:18:28;;;;;;;47.03;8.50;;;;;;;;;;5028096;28;20036;-58
2022/05/15 03:20:53;;;;;;;33.38;8.25;;;;;;;;;;5022466;28;20074;-58
2022/05/15 03:23:19;;;;;;;30.10;8.07;;;;;;;;;;5029631;28;20064;-58
2022/05/15 03:25:44;;;;;;;28.27;8.68;;;;;;;;;;5024235;28;20151;-58
2022/05/15 03:28:10;;;;;;;45.53;10.05;;;;;;;;;;5019415;28;20128;-58
2022/05/15 03:30:40;;;;;;;41.20;9.02;;;;;;;;;;5025225;28;20037;-58
2022/05/15 03:33:08;;;;;;;35.42;8.55;;;;;;;;;;5034642;28;20039;-58
2022/05/15 03:35:34;;;;;;;49.85;8.98;;;;;;;;;;5027408;28;20029;-58
2022/05/15 03:38:01;;;;;;;24.65;8.00;;;;;;;;;;5035246;28;20033;-58
2022/05/15 03:40:27;;;;;;;33.85;8.23;;;;;;;;;;5026337;28;20059;-59
2022/05/15 03:42:52;;;;;;;34.88;8.75;;;;;;;;;;5020948;28;20456;-58
2022/05/15 03:45:18;;;;;;;20.40;7.65;;;;;;;;;;5029182;28;20039;-58
2022/05/15 03:47:50;;;;;;;34.65;8.30;;;;;;;;;;5027354;28;20481;-58
2022/05/15 03:50:17;;;;;;;34.38;9.00;;;;;;;;;;5022524;28;20025;-58
2022/05/15 03:52:42;;;;;;;35.03;8.15;;;;;;;;;;5030330;28;20068;-58
2022/05/15 03:55:09;;;;;;;37.33;8.27;;;;;;;;;;5038305;28;20495;-58
2022/05/15 03:57:35;;;;;;;31.63;8.25;;;;;;;;;;5028802;28;20091;-58
2022/05/15 04:00:00;;;;;;;32.47;9.07;;;;;;;;;;5032300;28;20041;-58
2022/05/15 04:02:26;;;;;;;46.10;8.25;;;;;;;;;;5031099;28;20408;-58
2022/05/15 04:04:51;;;;;;;30.08;7.65;;;;;;;;;;5032728;28;20401;-58
2022/05/15 04:07:17;;;;;;;37.75;9.02;;;;;;;;;;5030213;28;20495;-58
2022/05/15 04:09:42;;;;;;;21.92;7.75;;;;;;;;;;5037110;28;20036;-58
2022/05/15 04:12:10;;;;;;;38.28;7.82;;;;;;;;;;5023739;28;20430;-57
2022/05/15 04:14:36;;;;;;;43.90;9.50;;;;;;;;;;5032465;28;20032;-58
2022/05/15 04:17:01;;;;;;;30.85;9.25;;;;;;;;;;5025246;28;20535;-58
2022/05/15 04:19:27;;;;;;;37.15;9.00;;;;;;;;;;5027228;28;20477;-58
2022/05/15 04:21:53;;;;;;;42.50;9.25;;;;;;;;;;5028562;28;20489;-58
2022/05/15 04:24:19;;;;;;;43.25;9.18;;;;;;;;;;5025161;28;20546;-58
2022/05/15 04:26:49;;;;;;;30.05;8.38;;;;;;;;;;5029073;28;20064;-58
2022/05/15 04:29:15;;;;;;;35.60;9.77;;;;;;;;;;5031543;28;20340;-57
2022/05/15 04:31:40;;;;;;;34.38;8.23;;;;;;;;;;5031216;28;20047;-58
2022/05/15 04:34:06;;;;;;;43.20;9.15;;;;;;;;;;5026353;28;20025;-58
2022/05/15 04:36:33;;;;;;;32.13;8.52;;;;;;;;;;5020777;28;20045;-58
2022/05/15 04:39:01;;;;;;;37.88;8.30;;;;;;;;;;5027299;28;20678;-58
2022/05/15 04:41:27;;;;;;;37.65;9.40;;;;;;;;;;5026156;28;20038;-58
2022/05/15 04:43:52;;;;;;;39.13;9.10;;;;;;;;;;5029747;28;20037;-58
2022/05/15 04:46:18;;;;;;;52.70;10.48;;;;;;;;;;5023394;28;20288;-58
2022/05/15 04:48:43;;;;;;;45.15;9.00;;;;;;;;;;5024680;28;20574;-58
2022/05/15 04:51:09;;;;;;;34.75;9.80;;;;;;;;;;5023264;28;20033;-58
2022/05/15 04:53:35;;;;;;;43.15;9.63;;;;;;;;;;5030277;28;20024;-57
2022/05/15 04:56:01;;;;;;;39.33;9.20;;;;;;;;;;5022657;28;20492;-58
2022/05/15 04:58:28;;;;;;;36.30;8.80;;;;;;;;;;5018395;28;20079;-58
2022/05/15 05:00:53;;;;;;;34.58;9.55;;;;;;;;;;5016584;28;20029;-58
2022/05/15 05:03:19;;;;;;;42.80;9.32;;;;;;;;;;5021840;28;20055;-58
2022/05/15 05:05:44;;;;;;;30.67;8.50;;;;;;;;;;5025211;28;20045;-58
2022/05/15 05:08:12;;;;;;;31.48;8.48;;;;;;;;;;5021233;28;20033;-58
2022/05/15 05:10:38;;;;;;;39.97;9.05;;;;;;;;;;5030175;28;20091;-58
2022/05/15 05:13:04;;;;;;;31.98;9.15;;;;;;;;;;5017360;28;20558;-58
2022/05/15 05:15:30;;;;;;;36.25;10.27;;;;;;;;;;5027684;28;20037;-58
2022/05/15 05:17:56;;;;;;;34.03;9.65;;;;;;;;;;5022553;28;20962;-57
2022/05/15 05:20:23;;;;;;;40.53;9.07;;;;;;;;;;5019771;28;20507;-58
2022/05/15 05:22:49;;;;;;;32.15;8.25;;;;;;;;;;5019260;28;20045;-58
2022/05/15 05:25:15;;;;;;;43.80;9.50;;;;;;;;;;5029556;28;20038;-58
2022/05/15 05:27:41;;;;;;;29.13;8.15;;;;;;;;;;5022117;28;20055;-58
2022/05/15 05:30:11;;;;;;;28.70;7.93;;;;;;;;;;5019070;28;20764;-58
2022/05/15 05:32:37;;;;;;;33.50;9.07;;;;;;;;;;5022861;28;20491;-58
2022/05/15 05:35:04;;;;;;;32.65;8.05;;;;;;;;;;5024017;28;20167;-58
2022/05/15 05:37:30;;;;;;;28.73;8.25;;;;;;;;;;5025048;28;20026;-58
2022/05/15 05:39:56;;;;;;;28.75;8.32;;;;;;;;;;5022123;28;20064;-58
2022/05/15 05:42:22;;;;;;;27.38;7.95;;;;;;;;;;5021782;28;20343;-58
2022/05/15 05:44:47;;;;;;;38.17;8.90;;;;;;;;;;5018199;28;20029;-58
2022/05/15 05:47:13;;;;;;;41.97;8.75;;;;;;;;;;5018438;28;20459;-58
2022/05/15 05:49:38;;;;;;;43.75;9.60;;;;;;;;;;5022179;28;20120;-58
2022/05/15 05:52:04;;;;;;;26.73;7.07;;;;;;;;;;5023260;28;20033;-58
2022/05/15 05:54:30;;;;;;;37.92;7.00;;;;;;;;;;5018478;28;20432;-58
2022/05/15 05:56:57;;;;;;;29.83;6.50;;;;;;;;;;5021614;28;20418;-58
2022/05/15 05:59:23;;;;;;;27.60;6.40;;;;;;;;;;5021961;28;20521;-58
2022/05/15 06:01:48;;;;;;;32.10;7.00;;;;;;;;;;5025982;28;20122;-58
2022/05/15 06:06:58;;;;;;;26.10;6.85;;;;;;;;;;5024672;28;20036;-58
2022/05/15 06:09:23;;;;;;;31.38;8.02;;;;;;;;;;5018589;28;20045;-58
2022/05/15 06:11:49;;;;;;;39.92;7.38;;;;;;;;;;5017988;28;20496;-58
2022/05/15 06:14:14;;;;;;;20.25;6.88;;;;;;;;;;5014990;28;20041;-58
2022/05/15 06:16:40;;;;;;;30.90;7.00;;;;;;;;;;5028014;28;20210;-58
2022/05/15 06:19:05;;;;;;;43.55;7.00;;;;;;;;;;5022489;28;20408;-58
2022/05/15 06:21:31;;;;;;;26.35;6.18;;;;;;;;;;5018294;28;20673;-57
2022/05/15 06:23:56;;;;;;;17.05;5.75;;;;;;;;;;5023331;28;20026;-59
2022/05/15 06:26:22;;;;;;;28.63;7.03;;;;;;;;;;5019794;28;20061;-59
2022/05/15 06:28:47;;;;;;;33.28;6.78;;;;;;;;;;5022370;28;20094;-58
2022/05/15 06:31:12;;;;;;;32.05;6.65;;;;;;;;;;5019548;28;20076;-58
2022/05/15 06:33:38;;;;;;;34.22;6.43;;;;;;;;;;5024626;28;20480;-58
2022/05/15 06:36:04;;;;;;;31.58;6.38;;;;;;;;;;5023876;28;20036;-58
2022/05/15 06:38:29;;;;;;;30.70;5.85;;;;;;;;;;5021600;28;20037;-58
2022/05/15 06:40:56;;;;;;;31.25;6.35;;;;;;;;;;5022907;28;20041;-58
2022/05/15 06:43:21;;;;;;;20.88;4.82;;;;;;;;;;5027937;28;20381;-58
2022/05/15 06:45:48;;;;;;;19.85;5.63;;;;;;;;;;5029171;28;20029;-58
2022/05/15 06:48:14;;;;;;;27.42;6.13;;;;;;;;;;5023976;28;20135;-58
2022/05/15 06:50:41;;;;;;;21.38;6.10;;;;;;;;;;5023716;28;20037;-58
2022/05/15 06:53:13;;;;;;;24.63;5.05;;;;;;;;;;5023032;28;20033;-58
2022/05/15 06:57:28;;;;;;;31.13;5.55;;;;;;;;;;5018698;28;20098;-58
2022/05/15 06:58:26;;;;;;;22.20;4.68;;;;;;;;;;5018384;28;20124;-58
2022/05/15 07:00:51;;;;;;;27.00;5.53;;;;;;;;;;5020687;28;20043;-58
2022/05/15 07:03:17;;;;;;;24.98;6.47;;;;;;;;;;5027778;28;20408;-59
2022/05/15 07:05:42;;;;;;;21.98;4.55;;;;;;;;;;5023658;28;20392;-58
2022/05/15 07:08:10;;;;;;;31.13;5.50;;;;;;;;;;5019324;28;20037;-58
2022/05/15 07:10:35;;;;;;;28.05;4.93;;;;;;;;;;5021021;28;20030;-58
2022/05/15 07:13:01;;;;;;;23.88;4.68;;;;;;;;;;5022669;28;20416;-58
2022/05/15 07:15:27;;;;;;;23.83;4.47;;;;;;;;;;5014678;28;20481;-58
2022/05/15 07:17:52;;;;;;;24.75;4.85;;;;;;;;;;5023603;28;20061;-58
2022/05/15 07:20:18;;;;;;;30.42;4.47;;;;;;;;;;5017664;28;20448;-58
2022/05/15 07:22:43;;;;;;;24.25;4.72;;;;;;;;;;5023705;28;20099;-58
2022/05/15 07:25:10;;;;;;;25.98;4.88;;;;;;;;;;5018973;28;20041;-58
2022/05/15 07:27:36;;;;;;;26.77;4.93;;;;;;;;;;5021110;28;20041;-58
2022/05/15 07:30:02;;;;;;;23.20;4.75;;;;;;;;;;5027582;28;20080;-58
2022/05/15 07:32:28;;;;;;;23.50;4.10;;;;;;;;;;5028524;28;20033;-58
2022/05/15 07:34:54;;;;;;;36.75;6.18;;;;;;;;;;5023712;28;20021;-59
2022/05/15 07:37:20;;;;;;;27.95;5.25;;;;;;;;;;5024536;28;20739;-58
2022/05/15 07:39:45;;;;;;;26.90;4.72;;;;;;;;;;5026743;28;20033;-58
2022/05/15 07:42:11;;;;;;;34.80;5.13;;;;;;;;;;5024257;28;20045;-58
2022/05/15 07:44:37;;;;;;;21.73;4.13;;;;;;;;;;5027643;28;20014;-58
2022/05/15 07:47:04;;;;;;;35.72;6.38;;;;;;;;;;5023012;28;20061;-59
2022/05/15 07:49:31;;;;;;;31.63;5.93;;;;;;;;;;5024770;28;20603;-58
2022/05/15 07:51:57;;;;;;;28.60;5.47;;;;;;;;;;5017072;28;20577;-58
2022/05/15 07:54:23;;;;;;;31.15;5.93;;;;;;;;;;5026334;28;20527;-58
2022/05/15 07:56:48;;;;;;;23.67;4.93;;;;;;;;;;5025518;28;20209;-58
2022/05/15 07:59:14;;;;;;;26.55;5.18;;;;;;;;;;5027862;28;20037;-58
2022/05/15 08:01:40;;;;;;;29.55;5.32;;;;;;;;;;5026378;28;20070;-58
2022/05/15 08:04:06;;;;;;;37.50;5.63;;;;;;;;;;5025944;28;20121;-58
2022/05/15 08:09:16;;;;;;;34.53;5.13;;;;;;;;;;5020241;28;20109;-58
2022/05/15 08:11:41;;;;;;;32.92;5.97;;;;;;;;;;5021001;28;20504;-58
2022/05/15 08:14:08;;;;;;;28.95;5.28;;;;;;;;;;5018830;28;20516;-58
2022/05/15 08:16:38;;;;;;;45.38;6.20;;;;;;;;;;5007037;28;20026;-58
2022/05/15 08:24:34;;;;;;;38.58;5.88;;;;;;;;;;5013478;28;20117;-58
2022/05/15 08:27:00;;;;;;;23.23;4.50;;;;;;;;;;5024292;28;20061;-58
2022/05/15 08:29:26;;;;;;;38.90;6.13;;;;;;;;;;5026046;28;20065;-59
2022/05/15 08:31:52;;;;;;;27.02;4.30;;;;;;;;;;5032227;28;20531;-58
2022/05/15 08:34:17;;;;;;;29.95;4.47;;;;;;;;;;5028154;28;20060;-57
2022/05/15 08:36:44;;;;;;;26.40;4.78;;;;;;;;;;5025150;28;20037;-58
2022/05/15 08:39:11;;;;;;;22.88;4.72;;;;;;;;;;5024911;28;20033;-58
2022/05/15 08:42:02;;;;;;;29.83;4.50;;;;;;;;;;5023621;28;20072;-58
2022/05/15 08:44:36;;;;;;;27.85;4.35;;;;;;;;;;5016465;28;20532;-58
2022/05/15 08:47:16;;;;;;;20.02;4.30;;;;;;;;;;5024713;28;20055;-58
2022/05/15 08:49:49;;;;;;;21.92;3.80;;;;;;;;;;5024090;28;20035;-58
2022/05/15 08:52:22;;;;;;;23.42;3.70;;;;;;;;;;5026009;28;20068;-58
2022/05/15 08:55:26;;;;;;;23.88;3.88;;;;;;;;;;5023093;28;20037;-59
2022/05/15 08:57:55;;;;;;;25.85;4.10;;;;;;;;;;4997813;28;20563;-58
2022/05/15 09:00:25;;;;;;;22.20;4.03;;;;;;;;;;4997044;28;20041;-59
2022/05/15 09:03:03;;;;;;;30.13;4.80;;;;;;;;;;5010893;28;20145;-59
2022/05/15 09:05:30;;;;;;;27.23;4.28;;;;;;;;;;5020786;28;20392;-59
2022/05/15 09:08:06;;;;;;;25.63;3.95;;;;;;;;;;5025055;28;20369;-59
2022/05/15 09:11:03;;;;;;;33.42;5.40;;;;;;;;;;5020787;28;20574;-59
2022/05/15 09:13:31;;;;;;;24.13;4.35;;;;;;;;;;5013176;28;20509;-58
2022/05/15 09:15:59;;;;;;;29.48;4.35;;;;;;;;;;5016170;28;20518;-58
2022/05/15 09:18:25;;;;;;;24.15;3.70;;;;;;;;;;5023060;28;20611;-58
2022/05/15 09:20:55;;;;;;;23.23;4.65;;;;;;;;;;5018442;28;20055;-59
2022/05/15 09:23:26;;;;;;;27.58;5.57;;;;;;;;;;5024427;28;20049;-57
2022/05/15 09:25:55;;;;;;;40.97;5.45;;;;;;;;;;5018218;28;20036;-58
2022/05/15 09:28:23;;;;;;;41.13;5.00;;;;;;;;;;5026715;28;20092;-58
2022/05/15 09:30:50;;;;;;;33.25;5.50;;;;;;;;;;5018200;28;20089;-58
2022/05/15 09:33:26;;;;;;;40.10;5.43;;;;;;;;;;5025046;28;20025;-58
2022/05/15 09:36:19;;;;;;;32.03;4.53;;;;;;;;;;5021844;28;20444;-58
2022/05/15 09:38:47;;;;;;;31.92;5.40;;;;;;;;;;5017558;28;20029;-58
2022/05/15 09:44:03;;;;;;;31.55;5.43;;;;;;;;;;5025520;28;20087;-58
2022/05/15 09:46:30;;;;;;;29.67;4.82;;;;;;;;;;5021695;28;20088;-58
2022/05/15 09:49:05;;;;;;;27.88;5.40;;;;;;;;;;5017001;28;20057;-58
2022/05/15 09:52:11;;;;;;;33.85;5.35;;;;;;;;;;5019384;28;20039;-58
2022/05/15 09:54:38;;;;;;;23.73;4.82;;;;;;;;;;5010739;28;20057;-59
2022/05/15 09:57:17;;;;;;;35.38;6.15;;;;;;;;;;5020854;28;20628;-59
2022/05/15 09:59:58;;;;;;;23.50;3.83;;;;;;;;;;5013588;28;20040;-59
2022/05/15 10:02:46;;;;;;;22.60;4.50;;;;;;;;;;5019339;28;20530;-59
2022/05/15 10:05:16;;;;;;;22.98;4.03;;;;;;;;;;5013077;28;20527;-59
2022/05/15 10:08:09;;;;;;;24.20;4.07;;;;;;;;;;5014812;28;21828;-58
2022/05/15 10:10:39;;;;;;;30.10;4.15;;;;;;;;;;5012031;28;20037;-59
2022/05/15 10:13:28;;;;;;;31.52;4.22;;;;;;;;;;5011481;28;20067;-57
2022/05/15 10:15:57;;;;;;;18.73;4.00;;;;;;;;;;5011363;28;20128;-58
2022/05/15 10:18:27;;;;;;;20.15;4.10;;;;;;;;;;5025941;28;20034;-59
2022/05/15 10:20:54;;;;;;;35.85;5.50;;;;;;;;;;5020104;28;20108;-60
2022/05/15 10:23:27;;;;;;;38.60;4.53;;;;;;;;;;5015974;28;20634;-60
2022/05/15 10:25:56;;;;;;;20.27;3.42;;;;;;;;;;5017675;28;20153;-60
2022/05/15 10:28:45;;;;;;;28.25;4.38;;;;;;;;;;5020691;28;20037;-60
2022/05/15 10:31:13;;;;;;;26.98;5.60;;;;;;;;;;5024483;28;20080;-59
2022/05/15 10:33:42;;;;;;;26.90;4.65;;;;;;;;;;5015906;28;20053;-59
2022/05/15 10:36:45;;;;;;;22.10;3.55;;;;;;;;;;5014710;28;20037;-59
2022/05/15 10:39:25;;;;;;;18.67;4.07;;;;;;;;;;5018172;28;20537;-59
2022/05/15 10:42:13;;;;;;;19.20;4.10;;;;;;;;;;5012989;28;20041;-59
2022/05/15 10:45:14;;;;;;;24.77;3.85;;;;;;;;;;5017641;28;20017;-60
2022/05/15 10:48:12;;;;;;;21.50;3.87;;;;;;;;;;5019498;28;20049;-60
2022/05/15 10:50:47;;;;;;;26.40;4.30;;;;;;;;;;5020142;28;20440;-58
2022/05/15 11:00:05;;;;;;;26.92;3.83;;;;;;;;;;5030599;28;20099;-59
2022/05/15 11:02:39;;;;;;;22.25;3.75;;;;;;;;;;5022536;28;20132;-59
2022/05/15 11:05:11;;;;;;;23.48;3.42;;;;;;;;;;5024989;28;20044;-59
2022/05/15 11:08:09;;;;;;;20.60;4.25;;;;;;;;;;5025027;28;20029;-60
2022/05/15 11:10:58;;;;;;;22.52;4.40;;;;;;;;;;5025590;28;20034;-60
2022/05/15 11:13:43;;;;;;;23.98;3.72;;;;;;;;;;5013157;28;20052;-57
2022/05/15 11:16:30;;;;;;;21.08;3.22;;;;;;;;;;5022094;28;20059;-60
2022/05/15 11:19:21;;;;;;;21.83;4.50;;;;;;;;;;5025620;28;20033;-60
2022/05/15 11:21:57;;;;;;;22.75;3.92;;;;;;;;;;5023528;28;20017;-60
2022/05/15 11:24:41;;;;;;;21.17;3.53;;;;;;;;;;5020364;28;20039;-60
2022/05/15 11:27:18;;;;;;;20.73;4.90;;;;;;;;;;5024361;28;20070;-60
2022/05/15 11:29:49;;;;;;;23.67;3.72;;;;;;;;;;5021114;28;20037;-60
2022/05/15 11:32:37;;;;;;;20.20;3.75;;;;;;;;;;5022073;28;20670;-59
2022/05/15 11:35:18;;;;;;;24.38;4.03;;;;;;;;;;5018173;28;20053;-59
2022/05/15 11:37:56;;;;;;;18.23;3.97;;;;;;;;;;5021078;28;20108;-59
2022/05/15 11:40:50;;;;;;;27.58;4.05;;;;;;;;;;5022284;28;20104;-60
2022/05/15 11:43:30;;;;;;;18.92;3.25;;;;;;;;;;5025156;28;20494;-59
2022/05/15 11:46:09;;;;;;;25.27;4.05;;;;;;;;;;5019935;28;20033;-59
2022/05/15 11:48:38;;;;;;;24.98;4.15;;;;;;;;;;5024934;28;20677;-59
2022/05/15 11:51:24;;;;;;;27.00;4.97;;;;;;;;;;5025479;28;20030;-59
2022/05/15 11:53:59;;;;;;;26.38;5.32;;;;;;;;;;5024614;28;20395;-59
2022/05/15 11:56:53;;;;;;;25.80;4.55;;;;;;;;;;5024668;28;20053;-59
2022/05/15 11:59:26;;;;;;;26.45;4.07;;;;;;;;;;5028145;28;20119;-59
2022/05/15 12:01:57;;;;;;;29.70;4.68;;;;;;;;;;5023479;28;20033;-59
2022/05/15 12:04:35;;;;;;;29.08;4.40;;;;;;;;;;5025297;28;20044;-59
2022/05/15 12:07:00;;;;;;;28.55;5.80;;;;;;;;;;5009081;28;20036;-58
2022/05/15 12:09:36;;;;;;;35.53;5.43;;;;;;;;;;5025212;28;20025;-59
2022/05/15 12:12:32;;;;;;;23.20;4.15;;;;;;;;;;5025833;28;20241;-59
2022/05/15 12:15:06;;;;;;;32.65;5.20;;;;;;;;;;5027899;28;20032;-60
2022/05/15 12:17:34;;;;;;;22.33;4.30;;;;;;;;;;5027867;28;20526;-59
2022/05/15 12:20:31;;;;;;;22.77;4.47;;;;;;;;;;5025957;28;20444;-58
2022/05/15 12:23:03;;;;;;;31.13;5.35;;;;;;;;;;5026042;28;20488;-58
2022/05/15 12:25:37;;;;;;;19.48;4.25;;;;;;;;;;5032310;28;20527;-58
2022/05/15 12:31:37;;;;;;;26.48;5.05;;;;;;;;;;5021148;28;20045;-59
2022/05/15 12:34:12;;;;;;;28.02;5.05;;;;;;;;;;5018529;28;20156;-59
2022/05/15 12:36:41;;;;;;;34.42;4.93;;;;;;;;;;5023717;28;20030;-59
2022/05/15 12:39:30;;;;;;;23.52;5.07;;;;;;;;;;5024944;28;20029;-59
2022/05/15 12:42:11;;;;;;;20.08;5.32;;;;;;;;;;5025965;28;20044;-59
2022/05/15 12:44:38;;;;;;;38.15;5.90;;;;;;;;;;5026349;28;20021;-59
2022/05/15 12:47:07;;;;;;;19.58;4.10;;;;;;;;;;5024899;28;20026;-59
2022/05/15 12:49:32;;;;;;;20.83;4.00;;;;;;;;;;5028684;28;20039;-59
2022/05/15 12:52:11;;;;;;;27.13;4.63;;;;;;;;;;5021352;28;20029;-59
2022/05/15 12:54:37;;;;;;;21.83;4.57;;;;;;;;;;5029229;28;20032;-59
2022/05/15 12:57:11;;;;;;;21.95;4.32;;;;;;;;;;5027661;28;20030;-59
2022/05/15 12:59:45;;;;;;;28.02;4.80;;;;;;;;;;5024886;28;20056;-59
2022/05/15 13:02:29;;;;;;;22.65;5.05;;;;;;;;;;5023560;28;20086;-58
2022/05/15 13:04:57;;;;;;;27.15;4.60;;;;;;;;;;5026514;28;20065;-59
2022/05/15 13:07:28;;;;;;;29.48;5.28;;;;;;;;;;5024517;28;20456;-58
2022/05/15 13:10:13;;;;;;;31.38;5.05;;;;;;;;;;5027823;28;20470;-59
2022/05/15 13:13:14;;;;;;;25.80;4.38;;;;;;;;;;5021267;28;20037;-58
2022/05/15 13:15:45;;;;;;;31.50;4.90;;;;;;;;;;5016681;28;20049;-59
2022/05/15 13:18:11;;;;;;;24.90;4.20;;;;;;;;;;5028313;28;20029;-59
2022/05/15 13:20:44;;;;;;;21.63;4.95;;;;;;;;;;5022875;28;20281;-58
2022/05/15 13:23:11;;;;;;;28.98;5.32;;;;;;;;;;5024298;28;20021;-59
2022/05/15 13:25:44;;;;;;;22.52;4.15;;;;;;;;;;5032183;28;20025;-59
2022/05/15 13:28:10;;;;;;;30.73;6.00;;;;;;;;;;5018727;28;20029;-59
2022/05/15 13:30:37;;;;;;;25.92;5.78;;;;;;;;;;5020773;28;20481;-60
2022/05/15 13:33:06;;;;;;;31.73;6.28;;;;;;;;;;5023429;28;20377;-59
2022/05/15 13:35:47;;;;;;;27.10;5.03;;;;;;;;;;5019581;28;20045;-59
2022/05/15 13:38:17;;;;;;;28.33;5.57;;;;;;;;;;5024563;28;20037;-58
2022/05/15 13:43:35;;;;;;;23.70;5.65;;;;;;;;;;5025675;28;20395;-59
2022/05/15 13:46:25;;;;;;;28.58;5.38;;;;;;;;;;5025515;28;20030;-58
2022/05/15 13:48:55;;;;;;;22.58;4.40;;;;;;;;;;5021956;28;20421;-58
2022/05/15 13:51:34;;;;;;;32.28;5.60;;;;;;;;;;5028111;28;20210;-59
2022/05/15 13:54:29;;;;;;;24.02;5.60;;;;;;;;;;5031394;28;20061;-59
2022/05/15 13:56:55;;;;;;;25.55;5.10;;;;;;;;;;5015527;28;20037;-59
2022/05/15 13:59:57;;;;;;;35.17;5.50;;;;;;;;;;5024044;28;20056;-59
2022/05/15 14:02:30;;;;;;;19.55;4.60;;;;;;;;;;5013001;28;20559;-58
2022/05/15 14:04:59;;;;;;;24.02;5.70;;;;;;;;;;5022784;28;20034;-59
2022/05/15 14:07:40;;;;;;;24.90;5.05;;;;;;;;;;5023115;28;20029;-58
2022/05/15 14:10:14;;;;;;;25.85;5.00;;;;;;;;;;5025907;28;20214;-58
2022/05/15 14:12:43;;;;;;;26.50;5.90;;;;;;;;;;5015031;28;20029;-58
2022/05/15 14:15:33;;;;;;;15.65;4.35;;;;;;;;;;5029977;28;20480;-59
2022/05/15 14:18:02;;;;;;;20.58;4.88;;;;;;;;;;5025432;28;20024;-59
2022/05/15 14:20:38;;;;;;;13.60;3.90;;;;;;;;;;5022757;28;20572;-58
2022/05/15 14:23:05;;;;;;;15.25;4.13;;;;;;;;;;5027571;28;20029;-59
2022/05/15 14:25:31;;;;;;;26.15;4.13;;;;;;;;;;5023796;28;20060;-59
2022/05/15 14:27:57;;;;;;;23.13;4.57;;;;;;;;;;5023309;28;20041;-59
2022/05/15 14:30:24;;;;;;;24.55;4.85;;;;;;;;;;5019151;28;20033;-59
2022/05/15 14:32:56;;;;;;;19.70;4.60;;;;;;;;;;5023396;28;20029;-59
2022/05/15 14:35:28;;;;;;;23.27;4.45;;;;;;;;;;5024779;28;20037;-59
2022/05/15 14:37:55;;;;;;;16.55;4.43;;;;;;;;;;5022901;28;20049;-60
2022/05/15 14:40:22;;;;;;;17.98;4.30;;;;;;;;;;5033180;28;20057;-60
2022/05/15 14:42:47;;;;;;;14.82;3.58;;;;;;;;;;5020756;28;20200;-59
2022/05/15 14:45:17;;;;;;;19.77;3.58;;;;;;;;;;5018150;28;20121;-57
2022/05/15 14:47:54;;;;;;;17.40;3.88;;;;;;;;;;5017103;28;21225;-59
2022/05/15 14:50:21;;;;;;;20.08;3.97;;;;;;;;;;5017059;28;20404;-59
2022/05/15 14:52:49;;;;;;;19.02;3.72;;;;;;;;;;5020081;28;20116;-58
2022/05/15 14:58:00;;;;;;;14.07;3.17;;;;;;;;;;5016149;28;20469;-58
2022/05/15 15:00:29;;;;;;;11.52;3.17;;;;;;;;;;5024521;28;20037;-58
2022/05/15 15:02:54;;;;;;;13.73;2.92;;;;;;;;;;5024855;28;20031;-58
2022/05/15 15:05:21;;;;;;;17.13;3.65;;;;;;;;;;5022333;28;20100;-58
2022/05/15 15:07:46;;;;;;;17.67;3.20;;;;;;;;;;5019727;28;20108;-58
2022/05/15 15:10:12;;;;;;;13.52;3.50;;;;;;;;;;5020565;28;20118;-57
2022/05/15 15:12:37;;;;;;;15.68;3.55;;;;;;;;;;5020459;28;20034;-58
2022/05/15 15:15:03;;;;;;;15.65;2.88;;;;;;;;;;5024477;28;20492;-58
2022/05/15 15:17:30;;;;;;;20.08;4.35;;;;;;;;;;5025251;28;20051;-58
2022/05/15 15:19:55;;;;;;;11.90;3.08;;;;;;;;;;5025152;28;20029;-57
2022/05/15 15:22:21;;;;;;;13.15;3.38;;;;;;;;;;5024662;28;20037;-58